sensor_id;sensor_type;location;lat;lon;timestamp;P1;durP1;ratioP1;P2;durP2;ratioP2
5483;SDS011;2764;48.794;8.326;2023-05-14T00:00:43;9.35;;;8.43;;
5483;SDS011;2764;48.794;8.326;2023-05-14T00:01:48;9.32;;;8.43;;
5483;SDS011;2764;48.794;8.326;2023-05-14T00:02:52;12.43;;;9.43;;
5483;SDS011;2764;48.794;8.326;2023-05-14T00:03:57;10.13;;;9.23;;
5483;SDS011;2764;48.794;8.326;2023-05-14T00:05:06;8.35;;;7.55;;
5483;SDS011;2764;48.794;8.326;2023-05-14T00:06:07;9.38;;;8.48;;
5483;SDS011;2764;48.794;8.326;2023-05-14T00:07:12;8.68;;;7.90;;
5483;SDS011;2764;48.794;8.326;2023-05-14T00:08:14;13.45;;;8.88;;
5483;SDS011;2764;48.794;8.326;2023-05-14T00:09:17;9.35;;;8.55;;
5483;SDS011;2764;48.794;8.326;2023-05-14T00:10:21;9.48;;;8.10;;
5483;SDS011;2764;48.794;8.326;2023-05-14T00:11:29;9.50;;;8.70;;
5483;SDS011;2764;48.794;8.326;2023-05-14T00:12:32;8.07;;;7.38;;
5483;SDS011;2764;48.794;8.326;2023-05-14T00:13:35;9.57;;;8.68;;
5483;SDS011;2764;48.794;8.326;2023-05-14T00:14:38;12.00;;;8.90;;
5483;SDS011;2764;48.794;8.326;2023-05-14T00:15:44;8.85;;;7.95;;
5483;SDS011;2764;48.794;8.326;2023-05-14T00:16:49;8.90;;;8.20;;
5483;SDS011;2764;48.794;8.326;2023-05-14T00:17:52;9.27;;;8.48;;
5483;SDS011;2764;48.794;8.326;2023-05-14T00:18:54;10.40;;;8.53;;
5483;SDS011;2764;48.794;8.326;2023-05-14T00:19:59;11.80;;;8.57;;
5483;SDS011;2764;48.794;8.326;2023-05-14T00:21:02;9.73;;;8.88;;
5483;SDS011;2764;48.794;8.326;2023-05-14T00:22:08;8.75;;;7.95;;
5483;SDS011;2764;48.794;8.326;2023-05-14T00:23:10;13.40;;;8.10;;
5483;SDS011;2764;48.794;8.326;2023-05-14T00:24:12;9.10;;;8.30;;
5483;SDS011;2764;48.794;8.326;2023-05-14T00:25:14;10.63;;;7.50;;
5483;SDS011;2764;48.794;8.326;2023-05-14T00:26:15;7.90;;;7.30;;
5483;SDS011;2764;48.794;8.326;2023-05-14T00:27:17;8.40;;;7.60;;
5483;SDS011;2764;48.794;8.326;2023-05-14T00:28:19;8.98;;;8.15;;
5483;SDS011;2764;48.794;8.326;2023-05-14T00:29:21;10.25;;;7.97;;
5483;SDS011;2764;48.794;8.326;2023-05-14T00:30:23;8.75;;;7.40;;
5483;SDS011;2764;48.794;8.326;2023-05-14T00:31:27;8.32;;;7.63;;
5483;SDS011;2764;48.794;8.326;2023-05-14T00:32:29;9.13;;;7.35;;
5483;SDS011;2764;48.794;8.326;2023-05-14T00:33:32;7.50;;;7.00;;
5483;SDS011;2764;48.794;8.326;2023-05-14T00:34:43;8.20;;;7.60;;
5483;SDS011;2764;48.794;8.326;2023-05-14T00:35:44;7.70;;;7.10;;
5483;SDS011;2764;48.794;8.326;2023-05-14T00:36:47;13.68;;;7.43;;
5483;SDS011;2764;48.794;8.326;2023-05-14T00:37:49;8.13;;;7.53;;
5483;SDS011;2764;48.794;8.326;2023-05-14T00:38:54;13.03;;;8.77;;
5483;SDS011;2764;48.794;8.326;2023-05-14T00:39:57;8.23;;;7.43;;
5483;SDS011;2764;48.794;8.326;2023-05-14T00:41:01;8.32;;;7.63;;
5483;SDS011;2764;48.794;8.326;2023-05-14T00:42:07;8.50;;;7.82;;
5483;SDS011;2764;48.794;8.326;2023-05-14T00:43:10;8.80;;;8.15;;
5483;SDS011;2764;48.794;8.326;2023-05-14T00:44:13;8.02;;;7.47;;
5483;SDS011;2764;48.794;8.326;2023-05-14T00:45:18;9.32;;;8.40;;
5483;SDS011;2764;48.794;8.326;2023-05-14T00:46:21;11.48;;;8.55;;
5483;SDS011;2764;48.794;8.326;2023-05-14T00:47:23;9.32;;;8.48;;
5483;SDS011;2764;48.794;8.326;2023-05-14T00:48:24;8.27;;;7.20;;
5483;SDS011;2764;48.794;8.326;2023-05-14T00:49:26;9.50;;;7.90;;
5483;SDS011;2764;48.794;8.326;2023-05-14T00:50:28;9.00;;;7.70;;
5483;SDS011;2764;48.794;8.326;2023-05-14T00:51:30;8.80;;;8.00;;
5483;SDS011;2764;48.794;8.326;2023-05-14T00:52:32;12.43;;;8.45;;
5483;SDS011;2764;48.794;8.326;2023-05-14T00:53:34;8.32;;;7.53;;
5483;SDS011;2764;48.794;8.326;2023-05-14T00:54:36;9.90;;;9.00;;
5483;SDS011;2764;48.794;8.326;2023-05-14T00:55:38;10.10;;;9.20;;
5483;SDS011;2764;48.794;8.326;2023-05-14T00:56:44;10.38;;;9.35;;
5483;SDS011;2764;48.794;8.326;2023-05-14T00:57:46;8.85;;;8.13;;
5483;SDS011;2764;48.794;8.326;2023-05-14T00:58:49;10.48;;;8.27;;
5483;SDS011;2764;48.794;8.326;2023-05-14T00:59:58;9.05;;;8.07;;
5483;SDS011;2764;48.794;8.326;2023-05-14T01:01:10;14.60;;;8.77;;
5483;SDS011;2764;48.794;8.326;2023-05-14T01:02:18;9.52;;;8.55;;
5483;SDS011;2764;48.794;8.326;2023-05-14T01:03:19;9.75;;;8.93;;
5483;SDS011;2764;48.794;8.326;2023-05-14T01:04:22;9.00;;;8.30;;
5483;SDS011;2764;48.794;8.326;2023-05-14T01:05:26;11.40;;;7.53;;
5483;SDS011;2764;48.794;8.326;2023-05-14T01:10:12;8.63;;;7.63;;
5483;SDS011;2764;48.794;8.326;2023-05-14T01:15:25;9.65;;;8.65;;
5483;SDS011;2764;48.794;8.326;2023-05-14T01:16:29;9.82;;;9.02;;
5483;SDS011;2764;48.794;8.326;2023-05-14T01:17:32;9.77;;;8.98;;
5483;SDS011;2764;48.794;8.326;2023-05-14T01:18:34;8.23;;;7.63;;
5483;SDS011;2764;48.794;8.326;2023-05-14T01:19:38;9.20;;;8.50;;
5483;SDS011;2764;48.794;8.326;2023-05-14T01:20:40;9.00;;;8.20;;
5483;SDS011;2764;48.794;8.326;2023-05-14T01:21:42;8.88;;;8.07;;
5483;SDS011;2764;48.794;8.326;2023-05-14T01:22:44;9.00;;;8.13;;
5483;SDS011;2764;48.794;8.326;2023-05-14T01:23:49;10.95;;;8.07;;
5483;SDS011;2764;48.794;8.326;2023-05-14T01:24:50;9.20;;;8.18;;
5483;SDS011;2764;48.794;8.326;2023-05-14T01:25:52;10.75;;;9.27;;
5483;SDS011;2764;48.794;8.326;2023-05-14T01:26:54;9.82;;;9.02;;
5483;SDS011;2764;48.794;8.326;2023-05-14T01:28:02;10.52;;;9.48;;
5483;SDS011;2764;48.794;8.326;2023-05-14T01:29:12;9.75;;;8.95;;
5483;SDS011;2764;48.794;8.326;2023-05-14T01:31:37;9.10;;;8.30;;
5483;SDS011;2764;48.794;8.326;2023-05-14T01:32:43;10.93;;;8.95;;
5483;SDS011;2764;48.794;8.326;2023-05-14T01:33:46;8.45;;;7.80;;
5483;SDS011;2764;48.794;8.326;2023-05-14T01:34:49;9.75;;;8.75;;
5483;SDS011;2764;48.794;8.326;2023-05-14T01:35:52;10.05;;;9.00;;
5483;SDS011;2764;48.794;8.326;2023-05-14T01:36:55;9.93;;;8.93;;
5483;SDS011;2764;48.794;8.326;2023-05-14T01:38:01;9.25;;;8.25;;
5483;SDS011;2764;48.794;8.326;2023-05-14T01:39:05;10.55;;;8.23;;
5483;SDS011;2764;48.794;8.326;2023-05-14T01:40:11;8.27;;;7.68;;
5483;SDS011;2764;48.794;8.326;2023-05-14T01:41:16;8.43;;;7.82;;
5483;SDS011;2764;48.794;8.326;2023-05-14T01:42:18;9.32;;;8.38;;
5483;SDS011;2764;48.794;8.326;2023-05-14T01:43:20;8.77;;;8.07;;
5483;SDS011;2764;48.794;8.326;2023-05-14T01:44:23;10.30;;;8.60;;
5483;SDS011;2764;48.794;8.326;2023-05-14T01:45:28;9.90;;;8.95;;
5483;SDS011;2764;48.794;8.326;2023-05-14T01:46:31;9.70;;;8.80;;
5483;SDS011;2764;48.794;8.326;2023-05-14T01:47:33;10.45;;;9.10;;
5483;SDS011;2764;48.794;8.326;2023-05-14T01:48:35;12.77;;;8.30;;
5483;SDS011;2764;48.794;8.326;2023-05-14T01:49:39;9.50;;;8.70;;
5483;SDS011;2764;48.794;8.326;2023-05-14T01:50:41;10.43;;;7.70;;
5483;SDS011;2764;48.794;8.326;2023-05-14T01:51:43;8.88;;;8.15;;
5483;SDS011;2764;48.794;8.326;2023-05-14T01:52:46;9.88;;;9.05;;
5483;SDS011;2764;48.794;8.326;2023-05-14T01:53:48;10.55;;;9.52;;
5483;SDS011;2764;48.794;8.326;2023-05-14T01:54:56;15.48;;;8.40;;
5483;SDS011;2764;48.794;8.326;2023-05-14T01:55:58;8.80;;;8.10;;
5483;SDS011;2764;48.794;8.326;2023-05-14T01:57:03;10.63;;;9.63;;
5483;SDS011;2764;48.794;8.326;2023-05-14T01:58:07;10.57;;;9.57;;
5483;SDS011;2764;48.794;8.326;2023-05-14T01:59:10;10.00;;;9.18;;
5483;SDS011;2764;48.794;8.326;2023-05-14T02:00:13;9.88;;;8.98;;
5483;SDS011;2764;48.794;8.326;2023-05-14T02:01:15;10.00;;;9.00;;
5483;SDS011;2764;48.794;8.326;2023-05-14T02:02:16;10.35;;;9.38;;
5483;SDS011;2764;48.794;8.326;2023-05-14T02:03:18;10.55;;;9.40;;
5483;SDS011;2764;48.794;8.326;2023-05-14T02:04:20;10.32;;;9.35;;
5483;SDS011;2764;48.794;8.326;2023-05-14T02:05:22;9.48;;;8.68;;
5483;SDS011;2764;48.794;8.326;2023-05-14T02:06:24;10.50;;;9.60;;
5483;SDS011;2764;48.794;8.326;2023-05-14T02:07:26;10.27;;;9.25;;
5483;SDS011;2764;48.794;8.326;2023-05-14T02:08:28;9.40;;;8.60;;
5483;SDS011;2764;48.794;8.326;2023-05-14T02:09:30;13.77;;;10.40;;
5483;SDS011;2764;48.794;8.326;2023-05-14T02:10:33;10.40;;;9.38;;
5483;SDS011;2764;48.794;8.326;2023-05-14T02:11:35;12.88;;;8.85;;
5483;SDS011;2764;48.794;8.326;2023-05-14T02:12:36;9.73;;;8.75;;
5483;SDS011;2764;48.794;8.326;2023-05-14T02:13:39;10.68;;;8.82;;
5483;SDS011;2764;48.794;8.326;2023-05-14T02:14:41;11.00;;;8.80;;
5483;SDS011;2764;48.794;8.326;2023-05-14T02:15:43;9.05;;;8.35;;
5483;SDS011;2764;48.794;8.326;2023-05-14T02:16:45;10.25;;;9.32;;
5483;SDS011;2764;48.794;8.326;2023-05-14T02:17:48;8.50;;;7.70;;
5483;SDS011;2764;48.794;8.326;2023-05-14T02:18:50;11.35;;;8.10;;
5483;SDS011;2764;48.794;8.326;2023-05-14T02:19:53;11.98;;;9.15;;
5483;SDS011;2764;48.794;8.326;2023-05-14T02:20:55;9.68;;;8.60;;
5483;SDS011;2764;48.794;8.326;2023-05-14T02:21:58;10.20;;;8.60;;
5483;SDS011;2764;48.794;8.326;2023-05-14T02:23:07;10.13;;;9.05;;
5483;SDS011;2764;48.794;8.326;2023-05-14T02:24:10;8.88;;;8.07;;
5483;SDS011;2764;48.794;8.326;2023-05-14T02:25:21;12.20;;;8.55;;
5483;SDS011;2764;48.794;8.326;2023-05-14T02:26:23;8.60;;;7.80;;
5483;SDS011;2764;48.794;8.326;2023-05-14T02:27:25;11.43;;;8.07;;
5483;SDS011;2764;48.794;8.326;2023-05-14T02:28:27;10.98;;;9.98;;
5483;SDS011;2764;48.794;8.326;2023-05-14T02:29:30;11.70;;;10.43;;
5483;SDS011;2764;48.794;8.326;2023-05-14T02:30:31;9.98;;;8.98;;
5483;SDS011;2764;48.794;8.326;2023-05-14T02:31:37;9.63;;;8.82;;
5483;SDS011;2764;48.794;8.326;2023-05-14T02:32:40;9.75;;;8.85;;
5483;SDS011;2764;48.794;8.326;2023-05-14T02:33:43;10.23;;;9.18;;
5483;SDS011;2764;48.794;8.326;2023-05-14T02:34:46;8.50;;;7.80;;
5483;SDS011;2764;48.794;8.326;2023-05-14T02:35:47;9.40;;;8.50;;
5483;SDS011;2764;48.794;8.326;2023-05-14T02:36:49;9.57;;;8.85;;
5483;SDS011;2764;48.794;8.326;2023-05-14T02:37:52;9.48;;;8.68;;
5483;SDS011;2764;48.794;8.326;2023-05-14T02:38:54;9.43;;;8.10;;
5483;SDS011;2764;48.794;8.326;2023-05-14T02:39:56;9.27;;;8.48;;
5483;SDS011;2764;48.794;8.326;2023-05-14T02:40:57;8.25;;;7.65;;
5483;SDS011;2764;48.794;8.326;2023-05-14T02:42:00;9.00;;;8.20;;
5483;SDS011;2764;48.794;8.326;2023-05-14T02:43:01;9.75;;;8.85;;
5483;SDS011;2764;48.794;8.326;2023-05-14T02:44:03;9.75;;;8.85;;
5483;SDS011;2764;48.794;8.326;2023-05-14T02:45:08;10.82;;;9.18;;
5483;SDS011;2764;48.794;8.326;2023-05-14T02:46:11;9.27;;;8.52;;
5483;SDS011;2764;48.794;8.326;2023-05-14T02:47:15;9.70;;;8.80;;
5483;SDS011;2764;48.794;8.326;2023-05-14T02:48:17;10.50;;;9.60;;
5483;SDS011;2764;48.794;8.326;2023-05-14T02:49:20;9.68;;;8.80;;
5483;SDS011;2764;48.794;8.326;2023-05-14T02:50:22;10.35;;;9.45;;
5483;SDS011;2764;48.794;8.326;2023-05-14T02:51:27;9.63;;;8.85;;
5483;SDS011;2764;48.794;8.326;2023-05-14T02:52:32;9.95;;;9.15;;
5483;SDS011;2764;48.794;8.326;2023-05-14T02:53:34;9.60;;;8.60;;
5483;SDS011;2764;48.794;8.326;2023-05-14T02:54:38;10.95;;;9.05;;
5483;SDS011;2764;48.794;8.326;2023-05-14T02:55:41;10.70;;;9.80;;
5483;SDS011;2764;48.794;8.326;2023-05-14T02:56:43;13.02;;;9.65;;
5483;SDS011;2764;48.794;8.326;2023-05-14T02:57:44;11.15;;;10.10;;
5483;SDS011;2764;48.794;8.326;2023-05-14T02:58:47;11.25;;;10.13;;
5483;SDS011;2764;48.794;8.326;2023-05-14T02:59:48;10.68;;;9.57;;
5483;SDS011;2764;48.794;8.326;2023-05-14T03:00:56;10.50;;;9.68;;
5483;SDS011;2764;48.794;8.326;2023-05-14T03:02:01;10.50;;;9.60;;
5483;SDS011;2764;48.794;8.326;2023-05-14T03:03:08;11.30;;;10.30;;
5483;SDS011;2764;48.794;8.326;2023-05-14T03:04:11;12.05;;;10.25;;
5483;SDS011;2764;48.794;8.326;2023-05-14T03:05:13;12.07;;;9.98;;
5483;SDS011;2764;48.794;8.326;2023-05-14T03:06:22;14.00;;;10.40;;
5483;SDS011;2764;48.794;8.326;2023-05-14T03:07:24;11.75;;;10.57;;
5483;SDS011;2764;48.794;8.326;2023-05-14T03:08:25;10.75;;;9.85;;
5483;SDS011;2764;48.794;8.326;2023-05-14T03:09:29;14.43;;;9.35;;
5483;SDS011;2764;48.794;8.326;2023-05-14T03:10:33;11.27;;;10.27;;
5483;SDS011;2764;48.794;8.326;2023-05-14T03:11:35;11.40;;;10.40;;
5483;SDS011;2764;48.794;8.326;2023-05-14T03:12:37;10.65;;;9.55;;
5483;SDS011;2764;48.794;8.326;2023-05-14T03:13:39;17.67;;;11.23;;
5483;SDS011;2764;48.794;8.326;2023-05-14T03:14:41;12.38;;;10.55;;
5483;SDS011;2764;48.794;8.326;2023-05-14T03:15:43;12.70;;;11.13;;
5483;SDS011;2764;48.794;8.326;2023-05-14T03:16:45;13.13;;;10.45;;
5483;SDS011;2764;48.794;8.326;2023-05-14T03:17:47;13.13;;;11.82;;
5483;SDS011;2764;48.794;8.326;2023-05-14T03:18:52;12.10;;;10.93;;
5483;SDS011;2764;48.794;8.326;2023-05-14T03:20:02;12.30;;;11.20;;
5483;SDS011;2764;48.794;8.326;2023-05-14T03:21:05;11.85;;;10.05;;
5483;SDS011;2764;48.794;8.326;2023-05-14T03:22:10;16.98;;;10.88;;
5483;SDS011;2764;48.794;8.326;2023-05-14T03:23:17;11.82;;;10.73;;
5483;SDS011;2764;48.794;8.326;2023-05-14T03:24:19;11.90;;;10.50;;
5483;SDS011;2764;48.794;8.326;2023-05-14T03:25:21;12.70;;;11.40;;
5483;SDS011;2764;48.794;8.326;2023-05-14T03:26:23;11.80;;;10.52;;
5483;SDS011;2764;48.794;8.326;2023-05-14T03:27:27;11.60;;;10.35;;
5483;SDS011;2764;48.794;8.326;2023-05-14T03:28:28;11.35;;;10.25;;
5483;SDS011;2764;48.794;8.326;2023-05-14T03:29:30;13.90;;;9.55;;
5483;SDS011;2764;48.794;8.326;2023-05-14T03:30:32;13.48;;;9.82;;
5483;SDS011;2764;48.794;8.326;2023-05-14T03:31:34;10.90;;;9.90;;
5483;SDS011;2764;48.794;8.326;2023-05-14T03:32:36;10.18;;;9.27;;
5483;SDS011;2764;48.794;8.326;2023-05-14T03:33:39;9.55;;;8.75;;
5483;SDS011;2764;48.794;8.326;2023-05-14T03:34:41;12.43;;;9.55;;
5483;SDS011;2764;48.794;8.326;2023-05-14T03:35:45;8.98;;;8.27;;
5483;SDS011;2764;48.794;8.326;2023-05-14T03:36:47;12.27;;;8.38;;
5483;SDS011;2764;48.794;8.326;2023-05-14T03:37:48;9.82;;;8.68;;
5483;SDS011;2764;48.794;8.326;2023-05-14T03:38:51;9.40;;;8.50;;
5483;SDS011;2764;48.794;8.326;2023-05-14T03:39:53;9.98;;;8.90;;
5483;SDS011;2764;48.794;8.326;2023-05-14T03:40:58;8.88;;;8.13;;
5483;SDS011;2764;48.794;8.326;2023-05-14T03:42:02;8.00;;;7.40;;
5483;SDS011;2764;48.794;8.326;2023-05-14T03:43:05;9.70;;;8.90;;
5483;SDS011;2764;48.794;8.326;2023-05-14T03:44:09;9.63;;;8.73;;
5483;SDS011;2764;48.794;8.326;2023-05-14T03:45:14;10.13;;;9.23;;
5483;SDS011;2764;48.794;8.326;2023-05-14T03:46:16;9.27;;;8.48;;
5483;SDS011;2764;48.794;8.326;2023-05-14T03:47:17;9.52;;;8.73;;
5483;SDS011;2764;48.794;8.326;2023-05-14T03:48:23;9.32;;;8.10;;
5483;SDS011;2764;48.794;8.326;2023-05-14T03:49:26;12.98;;;8.63;;
5483;SDS011;2764;48.794;8.326;2023-05-14T03:50:28;9.52;;;8.73;;
5483;SDS011;2764;48.794;8.326;2023-05-14T03:51:31;9.13;;;8.32;;
5483;SDS011;2764;48.794;8.326;2023-05-14T03:52:33;8.70;;;8.00;;
5483;SDS011;2764;48.794;8.326;2023-05-14T03:53:35;9.38;;;8.35;;
5483;SDS011;2764;48.794;8.326;2023-05-14T03:54:39;8.80;;;7.93;;
5483;SDS011;2764;48.794;8.326;2023-05-14T03:55:41;8.88;;;7.97;;
5483;SDS011;2764;48.794;8.326;2023-05-14T03:56:43;8.13;;;7.53;;
5483;SDS011;2764;48.794;8.326;2023-05-14T03:57:46;9.10;;;8.50;;
5483;SDS011;2764;48.794;8.326;2023-05-14T03:58:48;8.82;;;7.97;;
5483;SDS011;2764;48.794;8.326;2023-05-14T03:59:50;9.07;;;8.35;;
5483;SDS011;2764;48.794;8.326;2023-05-14T04:00:57;8.95;;;7.82;;
5483;SDS011;2764;48.794;8.326;2023-05-14T04:02:17;9.10;;;8.32;;
5483;SDS011;2764;48.794;8.326;2023-05-14T04:03:20;10.35;;;7.70;;
5483;SDS011;2764;48.794;8.326;2023-05-14T04:04:24;7.82;;;7.13;;
5483;SDS011;2764;48.794;8.326;2023-05-14T04:05:25;9.38;;;7.35;;
5483;SDS011;2764;48.794;8.326;2023-05-14T04:06:27;8.85;;;6.43;;
5483;SDS011;2764;48.794;8.326;2023-05-14T04:07:30;7.07;;;6.57;;
5483;SDS011;2764;48.794;8.326;2023-05-14T04:08:33;7.13;;;6.53;;
5483;SDS011;2764;48.794;8.326;2023-05-14T04:09:35;7.53;;;6.93;;
5483;SDS011;2764;48.794;8.326;2023-05-14T04:10:37;7.53;;;6.93;;
5483;SDS011;2764;48.794;8.326;2023-05-14T04:11:42;7.78;;;6.97;;
5483;SDS011;2764;48.794;8.326;2023-05-14T04:12:44;6.90;;;6.40;;
5483;SDS011;2764;48.794;8.326;2023-05-14T04:13:48;7.85;;;7.20;;
5483;SDS011;2764;48.794;8.326;2023-05-14T04:14:50;7.90;;;6.88;;
5483;SDS011;2764;48.794;8.326;2023-05-14T04:15:52;8.05;;;6.65;;
5483;SDS011;2764;48.794;8.326;2023-05-14T04:16:54;7.82;;;7.13;;
5483;SDS011;2764;48.794;8.326;2023-05-14T04:17:56;8.88;;;8.07;;
5483;SDS011;2764;48.794;8.326;2023-05-14T04:19:00;8.93;;;7.60;;
5483;SDS011;2764;48.794;8.326;2023-05-14T04:20:03;9.87;;;7.73;;
5483;SDS011;2764;48.794;8.326;2023-05-14T04:21:05;7.50;;;7.00;;
5483;SDS011;2764;48.794;8.326;2023-05-14T04:22:06;8.13;;;7.40;;
5483;SDS011;2764;48.794;8.326;2023-05-14T04:23:15;10.13;;;7.63;;
5483;SDS011;2764;48.794;8.326;2023-05-14T04:24:17;8.55;;;6.82;;
5483;SDS011;2764;48.794;8.326;2023-05-14T04:25:22;7.70;;;7.05;;
5483;SDS011;2764;48.794;8.326;2023-05-14T04:26:24;8.15;;;6.80;;
5483;SDS011;2764;48.794;8.326;2023-05-14T04:27:27;8.15;;;7.40;;
5483;SDS011;2764;48.794;8.326;2023-05-14T04:28:31;6.80;;;6.30;;
5483;SDS011;2764;48.794;8.326;2023-05-14T04:29:35;7.73;;;7.00;;
5483;SDS011;2764;48.794;8.326;2023-05-14T04:30:38;6.50;;;6.10;;
5483;SDS011;2764;48.794;8.326;2023-05-14T04:31:47;7.23;;;5.80;;
5483;SDS011;2764;48.794;8.326;2023-05-14T04:32:49;7.20;;;6.50;;
5483;SDS011;2764;48.794;8.326;2023-05-14T04:33:53;7.30;;;6.80;;
5483;SDS011;2764;48.794;8.326;2023-05-14T04:34:54;6.80;;;6.18;;
5483;SDS011;2764;48.794;8.326;2023-05-14T04:35:56;6.90;;;6.28;;
5483;SDS011;2764;48.794;8.326;2023-05-14T04:36:58;6.32;;;5.93;;
5483;SDS011;2764;48.794;8.326;2023-05-14T04:38:00;6.80;;;5.77;;
5483;SDS011;2764;48.794;8.326;2023-05-14T04:39:03;7.40;;;6.85;;
5483;SDS011;2764;48.794;8.326;2023-05-14T04:40:09;7.03;;;6.43;;
5483;SDS011;2764;48.794;8.326;2023-05-14T04:41:13;6.68;;;6.05;;
5483;SDS011;2764;48.794;8.326;2023-05-14T04:42:15;7.03;;;6.32;;
5483;SDS011;2764;48.794;8.326;2023-05-14T04:43:17;6.85;;;6.25;;
5483;SDS011;2764;48.794;8.326;2023-05-14T04:44:18;6.90;;;6.30;;
5483;SDS011;2764;48.794;8.326;2023-05-14T04:45:21;6.50;;;5.95;;
5483;SDS011;2764;48.794;8.326;2023-05-14T04:46:25;6.50;;;5.93;;
5483;SDS011;2764;48.794;8.326;2023-05-14T04:47:28;6.70;;;6.20;;
5483;SDS011;2764;48.794;8.326;2023-05-14T04:48:31;6.40;;;6.00;;
5483;SDS011;2764;48.794;8.326;2023-05-14T04:49:33;7.07;;;6.50;;
5483;SDS011;2764;48.794;8.326;2023-05-14T04:50:35;7.03;;;6.40;;
5483;SDS011;2764;48.794;8.326;2023-05-14T04:51:36;6.38;;;5.88;;
5483;SDS011;2764;48.794;8.326;2023-05-14T04:52:38;5.85;;;5.53;;
5483;SDS011;2764;48.794;8.326;2023-05-14T04:53:41;6.25;;;5.70;;
5483;SDS011;2764;48.794;8.326;2023-05-14T04:54:43;6.90;;;6.30;;
5483;SDS011;2764;48.794;8.326;2023-05-14T04:55:47;6.35;;;5.72;;
5483;SDS011;2764;48.794;8.326;2023-05-14T04:56:49;6.82;;;6.32;;
5483;SDS011;2764;48.794;8.326;2023-05-14T04:57:51;8.57;;;5.50;;
5483;SDS011;2764;48.794;8.326;2023-05-14T04:58:53;7.00;;;5.50;;
5483;SDS011;2764;48.794;8.326;2023-05-14T04:59:55;5.53;;;5.23;;
5483;SDS011;2764;48.794;8.326;2023-05-14T05:00:58;8.30;;;6.00;;
5483;SDS011;2764;48.794;8.326;2023-05-14T05:02:03;6.53;;;5.93;;
5483;SDS011;2764;48.794;8.326;2023-05-14T05:03:07;7.03;;;6.00;;
5483;SDS011;2764;48.794;8.326;2023-05-14T05:04:13;9.70;;;6.20;;
5483;SDS011;2764;48.794;8.326;2023-05-14T05:05:15;6.27;;;5.77;;
5483;SDS011;2764;48.794;8.326;2023-05-14T05:06:17;7.43;;;6.53;;
5483;SDS011;2764;48.794;8.326;2023-05-14T05:07:19;5.93;;;5.53;;
5483;SDS011;2764;48.794;8.326;2023-05-14T05:08:21;9.43;;;7.23;;
5483;SDS011;2764;48.794;8.326;2023-05-14T05:09:25;6.50;;;6.07;;
5483;SDS011;2764;48.794;8.326;2023-05-14T05:10:27;7.33;;;6.63;;
5483;SDS011;2764;48.794;8.326;2023-05-14T05:11:29;7.13;;;6.53;;
5483;SDS011;2764;48.794;8.326;2023-05-14T05:12:31;6.60;;;6.03;;
5483;SDS011;2764;48.794;8.326;2023-05-14T05:13:34;6.70;;;6.20;;
5483;SDS011;2764;48.794;8.326;2023-05-14T05:14:36;6.83;;;6.00;;
5483;SDS011;2764;48.794;8.326;2023-05-14T05:15:39;7.20;;;6.60;;
5483;SDS011;2764;48.794;8.326;2023-05-14T05:16:44;7.40;;;6.80;;
5483;SDS011;2764;48.794;8.326;2023-05-14T05:17:48;7.20;;;6.60;;
5483;SDS011;2764;48.794;8.326;2023-05-14T05:18:51;6.60;;;6.20;;
5483;SDS011;2764;48.794;8.326;2023-05-14T05:19:53;7.10;;;6.60;;
5483;SDS011;2764;48.794;8.326;2023-05-14T05:20:59;6.70;;;6.10;;
5483;SDS011;2764;48.794;8.326;2023-05-14T05:22:02;7.37;;;6.73;;
5483;SDS011;2764;48.794;8.326;2023-05-14T05:23:12;7.00;;;6.50;;
5483;SDS011;2764;48.794;8.326;2023-05-14T05:24:19;11.30;;;6.27;;
5483;SDS011;2764;48.794;8.326;2023-05-14T05:25:29;5.73;;;5.23;;
5483;SDS011;2764;48.794;8.326;2023-05-14T05:26:30;10.93;;;5.53;;
5483;SDS011;2764;48.794;8.326;2023-05-14T05:27:33;7.83;;;6.10;;
5483;SDS011;2764;48.794;8.326;2023-05-14T05:28:36;7.13;;;6.43;;
5483;SDS011;2764;48.794;8.326;2023-05-14T05:29:40;6.47;;;5.97;;
5483;SDS011;2764;48.794;8.326;2023-05-14T05:30:47;6.07;;;5.60;;
5483;SDS011;2764;48.794;8.326;2023-05-14T05:31:49;7.07;;;6.47;;
5483;SDS011;2764;48.794;8.326;2023-05-14T05:32:54;6.90;;;6.30;;
5483;SDS011;2764;48.794;8.326;2023-05-14T05:33:59;7.23;;;6.50;;
5483;SDS011;2764;48.794;8.326;2023-05-14T05:35:01;6.20;;;5.80;;
5483;SDS011;2764;48.794;8.326;2023-05-14T05:36:04;7.50;;;6.80;;
5483;SDS011;2764;48.794;8.326;2023-05-14T05:37:07;8.40;;;6.43;;
5483;SDS011;2764;48.794;8.326;2023-05-14T05:38:16;7.53;;;6.83;;
5483;SDS011;2764;48.794;8.326;2023-05-14T05:39:18;6.37;;;5.97;;
5483;SDS011;2764;48.794;8.326;2023-05-14T05:40:22;7.93;;;5.93;;
5483;SDS011;2764;48.794;8.326;2023-05-14T05:41:26;7.47;;;6.50;;
5483;SDS011;2764;48.794;8.326;2023-05-14T05:42:27;6.03;;;5.63;;
5483;SDS011;2764;48.794;8.326;2023-05-14T05:43:30;7.33;;;6.50;;
5483;SDS011;2764;48.794;8.326;2023-05-14T05:44:32;6.83;;;6.33;;
5483;SDS011;2764;48.794;8.326;2023-05-14T05:45:36;6.77;;;6.27;;
5483;SDS011;2764;48.794;8.326;2023-05-14T05:46:38;10.00;;;6.60;;
5483;SDS011;2764;48.794;8.326;2023-05-14T05:47:42;8.60;;;7.70;;
5483;SDS011;2764;48.794;8.326;2023-05-14T05:48:47;7.90;;;6.67;;
5483;SDS011;2764;48.794;8.326;2023-05-14T05:49:58;7.63;;;6.60;;
5483;SDS011;2764;48.794;8.326;2023-05-14T05:51:14;7.53;;;6.73;;
5483;SDS011;2764;48.794;8.326;2023-05-14T05:52:16;10.40;;;6.13;;
5483;SDS011;2764;48.794;8.326;2023-05-14T05:53:18;8.33;;;5.57;;
5483;SDS011;2764;48.794;8.326;2023-05-14T05:54:21;6.10;;;5.60;;
5483;SDS011;2764;48.794;8.326;2023-05-14T05:55:23;7.47;;;6.87;;
5483;SDS011;2764;48.794;8.326;2023-05-14T05:56:29;6.90;;;6.40;;
5483;SDS011;2764;48.794;8.326;2023-05-14T05:57:34;5.87;;;5.47;;
5483;SDS011;2764;48.794;8.326;2023-05-14T05:58:38;5.63;;;5.23;;
5483;SDS011;2764;48.794;8.326;2023-05-14T05:59:47;5.23;;;4.97;;
5483;SDS011;2764;48.794;8.326;2023-05-14T06:00:48;4.80;;;4.60;;
5483;SDS011;2764;48.794;8.326;2023-05-14T06:01:51;5.07;;;4.60;;
5483;SDS011;2764;48.794;8.326;2023-05-14T06:02:57;6.13;;;4.83;;
5483;SDS011;2764;48.794;8.326;2023-05-14T06:03:59;5.23;;;4.63;;
5483;SDS011;2764;48.794;8.326;2023-05-14T06:05:01;5.20;;;4.80;;
5483;SDS011;2764;48.794;8.326;2023-05-14T06:06:03;11.23;;;5.13;;
5483;SDS011;2764;48.794;8.326;2023-05-14T06:07:07;5.33;;;3.97;;
5483;SDS011;2764;48.794;8.326;2023-05-14T06:08:13;4.27;;;4.07;;
5483;SDS011;2764;48.794;8.326;2023-05-14T06:09:16;6.20;;;4.20;;
5483;SDS011;2764;48.794;8.326;2023-05-14T06:10:18;5.40;;;4.90;;
5483;SDS011;2764;48.794;8.326;2023-05-14T06:11:23;5.63;;;4.37;;
5483;SDS011;2764;48.794;8.326;2023-05-14T06:12:29;6.37;;;5.10;;
5483;SDS011;2764;48.794;8.326;2023-05-14T06:13:30;5.27;;;4.73;;
5483;SDS011;2764;48.794;8.326;2023-05-14T06:14:33;4.90;;;4.63;;
5483;SDS011;2764;48.794;8.326;2023-05-14T06:15:35;5.43;;;4.90;;
5483;SDS011;2764;48.794;8.326;2023-05-14T06:16:37;8.27;;;5.13;;
5483;SDS011;2764;48.794;8.326;2023-05-14T06:17:39;5.77;;;5.27;;
5483;SDS011;2764;48.794;8.326;2023-05-14T06:18:41;5.70;;;5.20;;
5483;SDS011;2764;48.794;8.326;2023-05-14T06:19:44;5.10;;;4.80;;
5483;SDS011;2764;48.794;8.326;2023-05-14T06:20:51;7.50;;;4.47;;
5483;SDS011;2764;48.794;8.326;2023-05-14T06:21:55;6.10;;;5.60;;
5483;SDS011;2764;48.794;8.326;2023-05-14T06:22:57;5.50;;;4.80;;
5483;SDS011;2764;48.794;8.326;2023-05-14T06:24:00;5.77;;;5.37;;
5483;SDS011;2764;48.794;8.326;2023-05-14T06:25:02;5.57;;;5.00;;
5483;SDS011;2764;48.794;8.326;2023-05-14T06:26:07;5.57;;;5.07;;
5483;SDS011;2764;48.794;8.326;2023-05-14T06:27:11;5.23;;;4.83;;
5483;SDS011;2764;48.794;8.326;2023-05-14T06:28:14;5.10;;;4.80;;
5483;SDS011;2764;48.794;8.326;2023-05-14T06:29:16;5.47;;;4.97;;
5483;SDS011;2764;48.794;8.326;2023-05-14T06:30:21;5.90;;;5.40;;
5483;SDS011;2764;48.794;8.326;2023-05-14T06:31:26;5.27;;;4.97;;
5483;SDS011;2764;48.794;8.326;2023-05-14T06:32:32;5.80;;;5.20;;
5483;SDS011;2764;48.794;8.326;2023-05-14T06:33:34;4.83;;;4.53;;
5483;SDS011;2764;48.794;8.326;2023-05-14T06:34:36;5.30;;;4.80;;
5483;SDS011;2764;48.794;8.326;2023-05-14T06:35:46;8.07;;;5.47;;
5483;SDS011;2764;48.794;8.326;2023-05-14T06:36:48;4.60;;;4.20;;
5483;SDS011;2764;48.794;8.326;2023-05-14T06:37:49;4.87;;;4.47;;
5483;SDS011;2764;48.794;8.326;2023-05-14T06:38:51;4.53;;;4.20;;
5483;SDS011;2764;48.794;8.326;2023-05-14T06:39:55;5.10;;;4.60;;
5483;SDS011;2764;48.794;8.326;2023-05-14T06:40:58;4.90;;;4.50;;